createdAt,value
2023-03-26T00:00:13.593Z,8.80
2023-03-26T00:01:14.062Z,8.80
2023-03-26T00:02:19.164Z,8.80
2023-03-26T00:03:13.179Z,8.90
2023-03-26T00:04:13.261Z,8.80
2023-03-26T00:05:13.199Z,8.80
2023-03-26T00:06:28.794Z,9.00
2023-03-26T00:07:12.956Z,8.80
2023-03-26T00:08:12.908Z,9.10
2023-03-26T00:09:13.272Z,8.90
2023-03-26T00:10:13.582Z,8.70
2023-03-26T00:11:19.474Z,8.90
2023-03-26T00:12:12.854Z,8.90
2023-03-26T00:13:13.864Z,9.00
2023-03-26T00:14:14.225Z,8.80
2023-03-26T00:15:13.596Z,8.90
2023-03-26T00:16:14.202Z,8.80
2023-03-26T00:17:13.543Z,8.70
2023-03-26T00:18:14.708Z,8.90
2023-03-26T00:19:13.648Z,9.10
2023-03-26T00:20:13.655Z,9.00
2023-03-26T00:21:13.617Z,9.20
2023-03-26T00:22:13.699Z,9.30
2023-03-26T00:23:13.755Z,9.10
2023-03-26T00:24:13.669Z,9.20
2023-03-26T00:25:13.706Z,9.30
2023-03-26T00:26:13.659Z,9.30
2023-03-26T00:27:13.639Z,9.40
2023-03-26T00:28:13.664Z,8.90
2023-03-26T00:29:13.618Z,9.10
2023-03-26T00:30:13.604Z,9.30
2023-03-26T00:31:13.826Z,9.50
2023-03-26T00:32:13.130Z,9.50
2023-03-26T00:33:13.073Z,9.40
2023-03-26T00:34:13.004Z,9.40
2023-03-26T00:35:12.907Z,9.10
2023-03-26T00:36:13.012Z,9.50
2023-03-26T00:37:13.073Z,9.40
2023-03-26T00:38:13.311Z,9.10
2023-03-26T00:39:13.675Z,9.10
2023-03-26T00:40:13.791Z,9.30
2023-03-26T00:41:13.653Z,9.40
2023-03-26T00:42:14.029Z,9.50
2023-03-26T00:43:13.355Z,9.20
2023-03-26T00:44:13.493Z,9.10
2023-03-26T00:45:13.963Z,9.30
2023-03-26T00:46:13.206Z,9.20
2023-03-26T00:47:13.585Z,9.20
2023-03-26T00:48:13.631Z,9.40
2023-03-26T00:49:13.655Z,9.40
2023-03-26T00:50:13.606Z,9.30
2023-03-26T00:51:13.633Z,9.40
2023-03-26T00:52:13.488Z,9.40
2023-03-26T00:53:13.516Z,9.40
2023-03-26T00:54:13.367Z,9.30
2023-03-26T00:55:13.533Z,9.30
2023-03-26T00:56:13.461Z,9.20
2023-03-26T00:57:20.200Z,9.40
2023-03-26T00:58:13.003Z,9.40
2023-03-26T00:59:12.975Z,9.60
2023-03-26T01:00:13.018Z,9.40
2023-03-26T01:01:13.054Z,9.60
2023-03-26T01:02:12.990Z,9.10
2023-03-26T01:03:19.193Z,9.30
2023-03-26T01:04:13.254Z,9.40
2023-03-26T01:05:13.485Z,9.90
2023-03-26T01:06:13.668Z,10.20
2023-03-26T01:07:13.702Z,10.40
2023-03-26T01:08:13.669Z,10.00
2023-03-26T01:09:13.529Z,9.40
2023-03-26T01:10:13.401Z,9.20
2023-03-26T01:11:13.491Z,9.10
2023-03-26T01:12:13.725Z,9.10
2023-03-26T01:13:13.897Z,9.20
2023-03-26T01:14:12.740Z,9.50
2023-03-26T01:15:13.634Z,9.50
2023-03-26T01:16:13.978Z,9.20
2023-03-26T01:17:13.348Z,9.50
2023-03-26T01:18:18.343Z,9.30
2023-03-26T01:19:13.251Z,9.60
2023-03-26T01:20:13.353Z,9.40
2023-03-26T01:21:13.269Z,9.60
2023-03-26T01:22:13.418Z,10.00
2023-03-26T01:23:13.373Z,9.30
2023-03-26T01:24:13.585Z,9.40
2023-03-26T01:25:13.678Z,9.60
2023-03-26T01:26:13.861Z,9.30
2023-03-26T01:27:13.759Z,9.60
2023-03-26T01:28:13.767Z,9.40
2023-03-26T01:29:13.667Z,9.30
2023-03-26T01:30:13.736Z,9.50
2023-03-26T01:31:13.779Z,9.60
2023-03-26T01:32:14.108Z,9.40
2023-03-26T01:33:13.214Z,9.40
2023-03-26T01:34:13.567Z,9.50
2023-03-26T01:35:13.484Z,9.20
2023-03-26T01:36:13.294Z,9.50
2023-03-26T01:37:13.467Z,9.50
2023-03-26T01:38:13.468Z,9.40
2023-03-26T01:39:13.654Z,9.40
2023-03-26T01:40:13.595Z,9.00
2023-03-26T01:41:13.506Z,9.10
2023-03-26T01:42:13.597Z,9.30
2023-03-26T01:43:13.414Z,9.10
2023-03-26T01:44:13.735Z,9.30
2023-03-26T01:45:13.721Z,9.40
2023-03-26T01:46:14.659Z,9.10
2023-03-26T01:47:13.795Z,9.20
2023-03-26T01:48:13.698Z,9.40
2023-03-26T01:49:13.922Z,9.30
2023-03-26T01:50:12.832Z,9.20
2023-03-26T01:51:13.741Z,9.60
2023-03-26T01:52:13.792Z,9.10
2023-03-26T01:53:13.681Z,9.30
2023-03-26T01:54:13.751Z,9.60
2023-03-26T01:55:13.804Z,9.30
2023-03-26T01:56:14.166Z,9.60
2023-03-26T01:57:13.388Z,9.40
2023-03-26T01:58:13.337Z,9.20
2023-03-26T01:59:13.139Z,9.50
2023-03-26T02:00:13.060Z,9.30
2023-03-26T02:01:13.098Z,9.30
2023-03-26T02:02:13.256Z,9.30
2023-03-26T02:03:13.265Z,9.30
2023-03-26T02:04:13.364Z,9.50
2023-03-26T02:05:18.304Z,9.30
2023-03-26T02:06:13.224Z,9.40
2023-03-26T02:07:13.213Z,9.30
2023-03-26T02:08:13.036Z,9.40
2023-03-26T02:09:12.870Z,9.50
2023-03-26T02:10:13.799Z,9.50
2023-03-26T02:11:13.728Z,9.30
2023-03-26T02:12:13.619Z,9.50
2023-03-26T02:13:13.523Z,9.50
2023-03-26T02:14:13.510Z,9.50
2023-03-26T02:15:13.676Z,9.30
2023-03-26T02:16:13.856Z,9.30
2023-03-26T02:17:13.947Z,9.50
2023-03-26T02:18:12.856Z,9.30
2023-03-26T02:19:13.833Z,9.70
2023-03-26T02:20:18.746Z,9.60
2023-03-26T02:21:13.758Z,9.50
2023-03-26T02:22:13.693Z,9.50
2023-03-26T02:23:13.625Z,9.60
2023-03-26T02:24:13.631Z,9.50
2023-03-26T02:25:13.817Z,9.40
2023-03-26T02:26:19.209Z,9.50
2023-03-26T02:27:13.187Z,9.40
2023-03-26T02:28:13.056Z,9.50
2023-03-26T02:29:12.897Z,9.40
2023-03-26T02:30:12.930Z,9.50
2023-03-26T02:31:13.030Z,9.40
2023-03-26T02:32:13.196Z,9.30
2023-03-26T02:33:13.149Z,9.50
2023-03-26T02:34:13.084Z,9.60
2023-03-26T02:35:13.376Z,9.50
2023-03-26T02:36:13.405Z,9.50
2023-03-26T02:37:13.922Z,9.40
2023-03-26T02:38:13.157Z,9.40
2023-03-26T02:39:13.492Z,9.50
2023-03-26T02:40:13.670Z,9.60
2023-03-26T02:41:13.976Z,9.40
2023-03-26T02:42:13.296Z,9.40
2023-03-26T02:43:13.345Z,9.40
2023-03-26T02:44:13.429Z,9.60
2023-03-26T02:45:13.747Z,9.60
2023-03-26T02:46:13.770Z,9.20
2023-03-26T02:47:13.828Z,9.40
2023-03-26T02:48:13.864Z,9.40
2023-03-26T02:49:12.857Z,9.20
2023-03-26T02:50:13.769Z,9.20
2023-03-26T02:51:14.293Z,9.10
2023-03-26T02:52:13.663Z,9.50
2023-03-26T02:53:14.026Z,9.40
2023-03-26T02:54:13.237Z,9.30
2023-03-26T02:55:13.196Z,9.20
2023-03-26T02:56:13.208Z,9.20
2023-03-26T02:57:13.200Z,9.20
2023-03-26T02:58:13.092Z,9.20
2023-03-26T02:59:13.320Z,9.00
2023-03-26T03:00:13.270Z,9.10
2023-03-26T03:01:13.285Z,8.90
2023-03-26T03:02:18.357Z,9.00
2023-03-26T03:03:13.394Z,9.00
2023-03-26T03:04:13.422Z,9.40
2023-03-26T03:05:13.581Z,9.30
2023-03-26T03:06:13.834Z,9.20
2023-03-26T03:07:14.274Z,9.00
2023-03-26T03:08:13.528Z,9.20
2023-03-26T03:09:13.870Z,9.40
2023-03-26T03:10:13.839Z,9.50
2023-03-26T03:11:12.804Z,9.60
2023-03-26T03:12:17.893Z,9.20
2023-03-26T03:13:12.750Z,9.40
2023-03-26T03:14:13.632Z,9.30
2023-03-26T03:15:14.123Z,9.50
2023-03-26T03:16:13.066Z,9.70
2023-03-26T03:17:13.258Z,9.70
2023-03-26T03:18:13.153Z,9.60
2023-03-26T03:19:13.005Z,9.50
2023-03-26T03:20:12.987Z,9.30
2023-03-26T03:21:12.834Z,9.50
2023-03-26T03:22:13.971Z,9.50
2023-03-26T03:23:13.134Z,9.50
2023-03-26T03:24:13.294Z,9.80
2023-03-26T03:25:13.434Z,9.80
2023-03-26T03:26:13.308Z,9.50
2023-03-26T03:27:13.245Z,9.50
2023-03-26T03:28:13.277Z,9.60
2023-03-26T03:29:13.334Z,10.00
2023-03-26T03:30:13.642Z,10.20
2023-03-26T03:31:13.841Z,9.90
2023-03-26T03:32:12.760Z,9.60
2023-03-26T03:33:13.635Z,9.80
2023-03-26T03:34:13.480Z,10.00
2023-03-26T03:35:13.788Z,9.90
2023-03-26T03:36:20.292Z,9.70
2023-03-26T03:37:13.583Z,9.80
2023-03-26T03:38:13.665Z,9.80
2023-03-26T03:39:13.550Z,9.60
2023-03-26T03:40:13.507Z,9.60
2023-03-26T03:41:13.837Z,9.60
2023-03-26T03:42:14.064Z,9.40
2023-03-26T03:43:13.228Z,9.60
2023-03-26T03:44:13.521Z,9.40
2023-03-26T03:45:13.606Z,9.50
2023-03-26T03:46:13.765Z,9.30
2023-03-26T03:47:13.746Z,9.70
2023-03-26T03:48:13.662Z,9.60
2023-03-26T03:49:13.493Z,9.50
2023-03-26T03:50:13.657Z,9.40
2023-03-26T03:51:13.806Z,9.20
2023-03-26T03:52:13.904Z,9.50
2023-03-26T03:53:12.741Z,9.50
2023-03-26T03:54:13.656Z,9.50
2023-03-26T03:55:13.586Z,9.40
2023-03-26T03:56:13.705Z,9.40
2023-03-26T03:57:13.627Z,9.20
2023-03-26T03:58:13.535Z,9.50
2023-03-26T03:59:13.444Z,9.40
2023-03-26T04:00:13.505Z,9.50
2023-03-26T04:01:13.810Z,9.20
2023-03-26T04:02:13.751Z,9.10
2023-03-26T04:03:13.811Z,9.00
2023-03-26T04:04:13.876Z,9.10
2023-03-26T04:05:12.808Z,9.10
2023-03-26T04:06:13.969Z,9.20
2023-03-26T04:07:12.977Z,9.20
2023-03-26T04:08:13.270Z,9.20
2023-03-26T04:09:13.180Z,9.50
2023-03-26T04:10:13.281Z,9.30
2023-03-26T04:11:13.092Z,9.10
2023-03-26T04:12:13.041Z,9.10
2023-03-26T04:13:13.100Z,9.40
2023-03-26T04:14:13.076Z,9.00
2023-03-26T04:15:13.100Z,9.10
2023-03-26T04:16:13.129Z,9.20
2023-03-26T04:17:13.198Z,9.10
2023-03-26T04:18:13.069Z,9.10
2023-03-26T04:19:12.947Z,8.90
2023-03-26T04:20:13.017Z,9.20
2023-03-26T04:21:13.017Z,9.10
2023-03-26T04:22:13.271Z,9.20
2023-03-26T04:23:13.716Z,9.40
2023-03-26T04:24:13.811Z,9.40
2023-03-26T04:25:13.932Z,9.10
2023-03-26T04:26:12.847Z,9.20
2023-03-26T04:27:13.886Z,9.30
2023-03-26T04:28:13.083Z,9.30
2023-03-26T04:29:13.199Z,9.30
2023-03-26T04:30:13.094Z,9.50
2023-03-26T04:31:13.333Z,9.40
2023-03-26T04:32:13.311Z,9.70
2023-03-26T04:33:13.297Z,9.90
2023-03-26T04:34:13.436Z,9.60
2023-03-26T04:35:13.496Z,9.30
2023-03-26T04:36:13.424Z,9.40
2023-03-26T04:37:13.537Z,9.50
2023-03-26T04:38:13.466Z,9.60
2023-03-26T04:39:13.837Z,9.20
2023-03-26T04:40:14.061Z,9.50
2023-03-26T04:41:12.967Z,9.50
2023-03-26T04:42:12.873Z,9.80
2023-03-26T04:43:13.825Z,9.40
2023-03-26T04:44:13.984Z,9.30
2023-03-26T04:45:12.976Z,9.50
2023-03-26T04:46:12.927Z,9.60
2023-03-26T04:47:12.820Z,9.70
2023-03-26T04:48:13.689Z,9.80
2023-03-26T04:49:13.961Z,9.60
2023-03-26T04:50:13.695Z,9.70
2023-03-26T04:51:13.515Z,9.70
2023-03-26T04:52:13.341Z,10.00
2023-03-26T04:53:13.422Z,9.70
2023-03-26T04:54:13.654Z,9.60
2023-03-26T04:55:13.552Z,9.80
2023-03-26T04:56:13.454Z,9.90
2023-03-26T04:57:13.530Z,9.90
2023-03-26T04:58:13.467Z,10.00
2023-03-26T04:59:13.445Z,9.50
2023-03-26T05:00:13.559Z,9.60
2023-03-26T05:01:13.646Z,9.60
2023-03-26T05:02:13.903Z,9.70
2023-03-26T05:03:12.904Z,9.70
2023-03-26T05:04:13.106Z,9.90
2023-03-26T05:05:13.349Z,9.90
2023-03-26T05:06:13.172Z,9.80
2023-03-26T05:07:14.162Z,9.90
2023-03-26T05:08:13.015Z,9.80
2023-03-26T05:09:12.808Z,9.50
2023-03-26T05:10:13.906Z,9.40
2023-03-26T05:11:13.421Z,9.50
2023-03-26T05:12:13.526Z,9.60
2023-03-26T05:13:13.575Z,9.50
2023-03-26T05:14:13.501Z,9.60
2023-03-26T05:15:13.483Z,9.90
2023-03-26T05:16:13.518Z,9.50
2023-03-26T05:17:13.427Z,9.60
2023-03-26T05:18:13.668Z,9.80
2023-03-26T05:19:13.651Z,9.90
2023-03-26T05:20:13.750Z,9.60
2023-03-26T05:21:13.935Z,9.80
2023-03-26T05:22:12.928Z,9.90
2023-03-26T05:23:12.984Z,9.90
2023-03-26T05:24:12.823Z,10.20
2023-03-26T05:25:13.802Z,9.70
2023-03-26T05:26:13.740Z,9.90
2023-03-26T05:27:13.643Z,9.70
2023-03-26T05:28:13.560Z,10.10
2023-03-26T05:29:13.480Z,10.00
2023-03-26T05:30:13.396Z,10.20
2023-03-26T05:31:13.430Z,10.00
2023-03-26T05:32:13.711Z,9.80
2023-03-26T05:33:13.925Z,10.00
2023-03-26T05:34:13.341Z,10.00
2023-03-26T05:35:13.497Z,10.20
2023-03-26T05:36:13.522Z,9.70
2023-03-26T05:37:13.443Z,10.00
2023-03-26T05:38:13.449Z,10.40
2023-03-26T05:39:13.480Z,10.10
2023-03-26T05:40:13.372Z,10.30
2023-03-26T05:41:13.481Z,10.20
2023-03-26T05:42:13.794Z,9.80
2023-03-26T05:43:13.834Z,9.80
2023-03-26T05:44:13.849Z,10.20
2023-03-26T05:45:13.841Z,10.40
2023-03-26T05:46:13.762Z,10.60
2023-03-26T05:47:13.670Z,10.60
2023-03-26T05:48:13.586Z,10.50
2023-03-26T05:49:13.648Z,9.90
2023-03-26T05:50:13.486Z,10.10
2023-03-26T05:51:13.305Z,10.10
2023-03-26T05:52:13.253Z,9.90
2023-03-26T05:53:13.197Z,10.00
2023-03-26T05:54:13.283Z,10.10
2023-03-26T05:55:13.616Z,10.40
2023-03-26T05:56:13.423Z,10.10
2023-03-26T05:57:13.424Z,9.90
2023-03-26T05:58:13.621Z,10.40
2023-03-26T05:59:13.698Z,10.50
2023-03-26T06:00:13.871Z,10.10
2023-03-26T06:01:12.951Z,10.40
2023-03-26T06:02:12.870Z,10.50
2023-03-26T06:03:13.184Z,9.90
2023-03-26T06:04:13.418Z,9.90
2023-03-26T06:05:14.070Z,10.20
2023-03-26T06:06:12.930Z,10.10
2023-03-26T06:07:13.005Z,10.00
2023-03-26T06:08:13.457Z,9.90
2023-03-26T06:09:13.379Z,9.80
2023-03-26T06:10:17.980Z,10.10
2023-03-26T06:11:12.881Z,10.00
2023-03-26T06:12:13.300Z,10.20
2023-03-26T06:13:13.606Z,10.50
2023-03-26T06:14:13.695Z,10.30
2023-03-26T06:15:14.740Z,10.00
2023-03-26T06:16:27.148Z,10.20
2023-03-26T06:17:13.259Z,10.40
2023-03-26T06:18:13.703Z,9.90
2023-03-26T06:19:13.826Z,10.40
2023-03-26T06:20:14.048Z,10.70
2023-03-26T06:21:13.115Z,10.80
2023-03-26T06:22:13.237Z,10.40
2023-03-26T06:23:13.193Z,10.50
2023-03-26T06:24:13.093Z,10.60
2023-03-26T06:25:12.993Z,10.60
2023-03-26T06:26:13.041Z,10.60
2023-03-26T06:27:12.938Z,10.70
2023-03-26T06:28:12.980Z,10.90
2023-03-26T06:29:12.980Z,10.80
2023-03-26T06:30:13.015Z,10.60
2023-03-26T06:31:13.301Z,10.60
2023-03-26T06:32:19.615Z,11.00
2023-03-26T06:33:13.334Z,10.60
2023-03-26T06:34:13.478Z,10.70
2023-03-26T06:35:13.571Z,10.30
2023-03-26T06:36:14.029Z,10.30
2023-03-26T06:37:13.168Z,10.20
2023-03-26T06:38:13.215Z,10.40
2023-03-26T06:39:13.142Z,10.40
2023-03-26T06:40:14.176Z,10.60
2023-03-26T06:41:14.012Z,10.60
2023-03-26T06:42:13.495Z,10.60
2023-03-26T06:43:13.781Z,10.30
2023-03-26T06:44:13.643Z,10.70
2023-03-26T06:45:13.738Z,10.50
2023-03-26T06:46:14.063Z,10.20
2023-03-26T06:47:12.999Z,10.30
2023-03-26T06:48:12.871Z,10.30
2023-03-26T06:49:13.715Z,10.40
2023-03-26T06:50:13.649Z,10.90
2023-03-26T06:51:13.598Z,10.90
2023-03-26T06:52:13.583Z,11.10
2023-03-26T06:53:13.432Z,11.10
2023-03-26T06:54:13.273Z,11.20
2023-03-26T06:55:13.349Z,11.20
2023-03-26T06:56:13.426Z,10.60
2023-03-26T06:57:13.489Z,10.70
2023-03-26T06:58:13.758Z,10.20
2023-03-26T06:59:13.774Z,10.50
2023-03-26T07:00:13.680Z,10.40
2023-03-26T07:01:13.820Z,10.20
2023-03-26T07:02:13.987Z,10.60
2023-03-26T07:03:12.949Z,10.80
2023-03-26T07:04:12.853Z,10.80
2023-03-26T07:05:12.836Z,10.70
2023-03-26T07:06:13.913Z,10.70
2023-03-26T07:07:12.809Z,10.60
2023-03-26T07:08:13.762Z,10.70
2023-03-26T07:09:13.707Z,11.00
2023-03-26T07:10:13.857Z,11.00
2023-03-26T07:11:13.852Z,10.70
2023-03-26T07:12:14.154Z,10.50
2023-03-26T07:13:13.104Z,10.20
2023-03-26T07:14:13.084Z,10.50
2023-03-26T07:15:13.117Z,10.50
2023-03-26T07:16:13.377Z,10.40
2023-03-26T07:17:43.161Z,10.10
2023-03-26T07:18:13.024Z,10.60
2023-03-26T07:19:14.895Z,10.80
2023-03-26T07:20:13.129Z,10.50
2023-03-26T07:21:13.193Z,10.30
2023-03-26T07:22:13.093Z,10.60
2023-03-26T07:23:12.931Z,10.90
2023-03-26T07:24:13.053Z,10.70
2023-03-26T07:25:13.191Z,11.00
2023-03-26T07:26:13.083Z,10.90
2023-03-26T07:27:13.022Z,10.60
2023-03-26T07:28:12.828Z,11.00
2023-03-26T07:29:13.743Z,10.90
2023-03-26T07:30:13.990Z,10.60
2023-03-26T07:31:13.053Z,10.50
2023-03-26T07:32:13.137Z,10.80
2023-03-26T07:33:13.103Z,10.80
2023-03-26T07:34:13.595Z,10.60
2023-03-26T07:35:13.822Z,10.70
2023-03-26T07:36:13.755Z,10.30
2023-03-26T07:37:13.806Z,10.60
2023-03-26T07:38:13.705Z,10.70
2023-03-26T07:39:13.663Z,10.70
2023-03-26T07:40:13.544Z,11.00
2023-03-26T07:41:13.534Z,11.10
2023-03-26T07:42:18.329Z,10.80
2023-03-26T07:43:13.211Z,11.00
2023-03-26T07:44:13.388Z,10.90
2023-03-26T07:45:13.363Z,10.70
2023-03-26T07:46:13.528Z,10.70
2023-03-26T07:47:13.561Z,10.90
2023-03-26T07:48:13.489Z,11.10
2023-03-26T07:49:13.310Z,11.00
2023-03-26T07:50:13.226Z,11.20
2023-03-26T07:51:13.429Z,11.10
2023-03-26T07:52:13.821Z,11.20
2023-03-26T07:53:13.961Z,11.30
2023-03-26T07:54:12.876Z,11.30
2023-03-26T07:55:12.846Z,11.20
2023-03-26T07:56:14.076Z,11.30
2023-03-26T07:57:13.440Z,11.30
2023-03-26T07:58:13.573Z,11.20
2023-03-26T07:59:13.713Z,11.20
2023-03-26T08:00:13.631Z,11.10
2023-03-26T08:01:13.617Z,11.10
2023-03-26T08:02:13.871Z,11.20
2023-03-26T08:03:14.079Z,11.30
2023-03-26T08:04:24.163Z,11.30
2023-03-26T08:05:13.463Z,11.10
2023-03-26T08:06:13.366Z,11.30
2023-03-26T08:07:13.890Z,11.30
2023-03-26T08:08:13.010Z,11.30
2023-03-26T08:09:12.950Z,11.30
2023-03-26T08:10:13.130Z,11.30
2023-03-26T08:11:13.472Z,11.30
2023-03-26T08:12:13.534Z,11.30
2023-03-26T08:13:13.638Z,11.30
2023-03-26T08:14:13.448Z,11.30
2023-03-26T08:15:13.430Z,11.30
2023-03-26T08:16:13.354Z,11.30
2023-03-26T08:17:13.327Z,11.40
2023-03-26T08:18:13.469Z,11.40
2023-03-26T08:19:13.351Z,11.40
2023-03-26T08:20:13.244Z,11.40
2023-03-26T08:21:13.432Z,11.40
2023-03-26T08:22:13.609Z,11.30
2023-03-26T08:23:13.718Z,11.50
2023-03-26T08:24:13.788Z,11.40
2023-03-26T08:25:54.657Z,11.20
2023-03-26T08:26:14.348Z,11.10
2023-03-26T08:27:13.311Z,11.20
2023-03-26T08:28:13.318Z,11.30
2023-03-26T08:29:13.384Z,10.90
2023-03-26T08:30:13.583Z,11.00
2023-03-26T08:31:13.739Z,11.10
2023-03-26T08:32:13.771Z,11.10
2023-03-26T08:33:13.925Z,11.20
2023-03-26T08:34:13.040Z,11.10
2023-03-26T08:35:13.205Z,11.20
2023-03-26T08:36:13.132Z,10.80
2023-03-26T08:37:13.011Z,10.80
2023-03-26T08:38:17.978Z,10.90
2023-03-26T08:39:12.885Z,11.00
2023-03-26T08:40:12.851Z,11.10
2023-03-26T08:41:13.765Z,11.10
2023-03-26T08:42:13.643Z,11.20
2023-03-26T08:43:13.528Z,11.00
2023-03-26T08:44:13.479Z,10.80
2023-03-26T08:45:13.523Z,10.90
2023-03-26T08:46:13.636Z,10.90
2023-03-26T08:47:13.784Z,10.90
2023-03-26T08:48:13.798Z,11.10
2023-03-26T08:49:14.895Z,11.00
2023-03-26T08:50:13.153Z,11.00
2023-03-26T08:51:13.239Z,10.70
2023-03-26T08:52:13.535Z,10.70
2023-03-26T08:53:13.413Z,10.90
2023-03-26T08:54:13.229Z,10.70
2023-03-26T08:55:13.777Z,10.90
2023-03-26T08:56:13.848Z,11.00
2023-03-26T08:57:13.680Z,11.20
2023-03-26T08:58:13.928Z,10.90
2023-03-26T08:59:13.347Z,11.20
2023-03-26T09:00:13.350Z,11.30
2023-03-26T09:01:13.422Z,11.10
2023-03-26T09:02:13.361Z,10.80
2023-03-26T09:03:13.994Z,10.10
2023-03-26T09:04:12.995Z,10.10
2023-03-26T09:05:12.937Z,10.20
2023-03-26T09:06:12.985Z,10.30
2023-03-26T09:07:13.379Z,10.70
2023-03-26T09:08:13.877Z,10.80
2023-03-26T09:09:19.033Z,10.60
2023-03-26T09:10:13.383Z,10.80
2023-03-26T09:11:13.232Z,10.90
2023-03-26T09:12:13.189Z,11.00
2023-03-26T09:13:13.481Z,11.10
2023-03-26T09:14:13.282Z,11.10
2023-03-26T09:15:13.150Z,11.20
2023-03-26T09:16:13.046Z,11.30
2023-03-26T09:17:12.907Z,11.30
2023-03-26T09:18:13.666Z,10.80
2023-03-26T09:19:13.845Z,10.90
2023-03-26T09:20:13.605Z,11.20
2023-03-26T09:21:13.539Z,11.40
2023-03-26T09:22:13.488Z,11.40
2023-03-26T09:23:14.657Z,11.40
2023-03-26T09:24:13.162Z,11.30
2023-03-26T09:25:13.140Z,11.30
2023-03-26T09:26:13.163Z,11.20
2023-03-26T09:27:13.106Z,11.30
2023-03-26T09:28:13.421Z,11.30
2023-03-26T09:29:13.636Z,11.30
2023-03-26T09:30:13.685Z,11.40
2023-03-26T09:31:13.639Z,11.40
2023-03-26T09:32:13.684Z,11.50
2023-03-26T09:33:13.743Z,11.60
2023-03-26T09:34:13.889Z,11.60
2023-03-26T09:35:14.238Z,11.50
2023-03-26T09:36:13.530Z,11.50
2023-03-26T09:37:18.623Z,11.50
2023-03-26T09:38:13.611Z,11.50
2023-03-26T09:39:13.816Z,11.50
2023-03-26T09:40:13.740Z,11.40
2023-03-26T09:41:14.140Z,11.50
2023-03-26T09:42:13.131Z,11.30
2023-03-26T09:43:13.130Z,11.10
2023-03-26T09:44:13.166Z,10.90
2023-03-26T09:45:13.089Z,10.80
2023-03-26T09:46:13.250Z,10.50
2023-03-26T09:47:13.186Z,10.40
2023-03-26T09:48:13.400Z,10.30
2023-03-26T09:49:13.283Z,10.40
2023-03-26T09:50:13.170Z,10.40
2023-03-26T09:51:13.241Z,10.50
2023-03-26T09:52:13.104Z,10.00
2023-03-26T09:53:13.009Z,9.90
2023-03-26T09:54:12.832Z,10.30
2023-03-26T09:55:13.892Z,10.40
2023-03-26T09:56:12.752Z,10.60
2023-03-26T09:57:13.793Z,10.70
2023-03-26T09:58:13.774Z,10.80
2023-03-26T09:59:14.067Z,10.70
2023-03-26T10:00:12.978Z,10.80
2023-03-26T10:01:13.189Z,10.90
2023-03-26T10:02:13.427Z,10.90
2023-03-26T10:03:13.915Z,10.60
2023-03-26T10:04:12.768Z,10.60
2023-03-26T10:05:13.966Z,10.70
2023-03-26T10:06:13.175Z,10.70
2023-03-26T10:07:13.194Z,10.70
2023-03-26T10:08:13.427Z,10.70
2023-03-26T10:09:13.563Z,10.70
2023-03-26T10:10:13.443Z,11.10
2023-03-26T10:11:13.788Z,10.90
2023-03-26T10:12:14.158Z,10.80
2023-03-26T10:13:14.954Z,10.70
2023-03-26T10:14:13.141Z,10.50
2023-03-26T10:15:13.063Z,10.10
2023-03-26T10:16:12.979Z,10.00
2023-03-26T10:17:13.002Z,10.00
2023-03-26T10:18:26.608Z,10.00
2023-03-26T10:19:13.472Z,10.20
2023-03-26T10:20:13.444Z,10.40
2023-03-26T10:21:13.385Z,10.60
2023-03-26T10:22:13.421Z,10.70
2023-03-26T10:23:13.513Z,10.50
2023-03-26T10:24:13.648Z,10.60
2023-03-26T10:25:13.613Z,11.00
2023-03-26T10:26:13.445Z,10.70
2023-03-26T10:27:13.376Z,10.80
2023-03-26T10:28:13.280Z,10.60
2023-03-26T10:29:13.225Z,10.70
2023-03-26T10:30:13.110Z,10.90
2023-03-26T10:31:13.225Z,10.80
2023-03-26T10:32:13.258Z,10.90
2023-03-26T10:33:13.173Z,11.30
2023-03-26T10:34:28.601Z,11.40
2023-03-26T10:35:13.472Z,11.40
2023-03-26T10:36:13.525Z,11.50
2023-03-26T10:37:13.865Z,11.40
2023-03-26T10:38:14.115Z,11.30
2023-03-26T10:39:36.274Z,11.50
2023-03-26T10:40:13.170Z,11.30
2023-03-26T10:41:13.371Z,11.30
2023-03-26T10:42:13.500Z,11.30
2023-03-26T10:43:13.476Z,11.40
2023-03-26T10:44:13.432Z,11.60
2023-03-26T10:45:13.418Z,11.30
2023-03-26T10:46:13.723Z,11.30
2023-03-26T10:47:13.901Z,11.60
2023-03-26T10:48:12.924Z,11.50
2023-03-26T10:49:12.768Z,11.10
2023-03-26T10:50:15.032Z,11.40
2023-03-26T10:51:13.264Z,11.60
2023-03-26T10:52:13.301Z,11.30
2023-03-26T10:53:13.186Z,11.00
2023-03-26T10:54:13.130Z,11.50
2023-03-26T10:55:13.298Z,11.50
2023-03-26T10:56:13.317Z,11.60
2023-03-26T10:57:13.378Z,11.20
2023-03-26T10:58:13.490Z,10.90
2023-03-26T10:59:13.533Z,10.70
2023-03-26T11:00:13.722Z,10.70
2023-03-26T11:01:14.033Z,11.00
2023-03-26T11:02:13.122Z,11.00
2023-03-26T11:03:13.274Z,10.70
2023-03-26T11:04:13.352Z,10.80
2023-03-26T11:05:13.885Z,10.90
2023-03-26T11:06:13.197Z,11.20
2023-03-26T11:07:13.517Z,11.10
2023-03-26T11:08:13.486Z,11.20
2023-03-26T11:09:13.416Z,11.30
2023-03-26T11:10:13.574Z,10.90
2023-03-26T11:11:13.573Z,10.40
2023-03-26T11:12:27.348Z,10.40
2023-03-26T11:13:13.532Z,10.40
2023-03-26T11:14:18.979Z,10.50
2023-03-26T11:15:13.639Z,10.40
2023-03-26T11:16:13.761Z,10.40
2023-03-26T11:17:14.890Z,10.30
2023-03-26T11:18:12.976Z,10.10
2023-03-26T11:19:13.116Z,9.90
2023-03-26T11:20:13.043Z,9.90
2023-03-26T11:21:18.904Z,9.40
2023-03-26T11:22:13.713Z,9.50
2023-03-26T11:23:13.638Z,9.50
2023-03-26T11:24:15.042Z,10.00
2023-03-26T11:25:12.954Z,10.10
2023-03-26T11:26:12.931Z,10.30
2023-03-26T11:27:17.460Z,10.30
2023-03-26T11:28:14.006Z,10.30
2023-03-26T11:29:32.235Z,10.30
2023-03-26T11:30:13.163Z,10.30
2023-03-26T11:31:13.444Z,10.10
2023-03-26T11:32:13.671Z,10.10
2023-03-26T11:33:13.852Z,10.00
2023-03-26T11:34:14.095Z,10.10
2023-03-26T11:35:13.096Z,10.20
2023-03-26T11:36:13.634Z,10.10
2023-03-26T11:37:13.677Z,10.20
2023-03-26T11:38:13.613Z,10.30
2023-03-26T11:39:13.498Z,10.30
2023-03-26T11:40:13.544Z,10.30
2023-03-26T11:41:13.463Z,10.40
2023-03-26T11:42:13.660Z,10.40
2023-03-26T11:43:13.543Z,10.10
2023-03-26T11:44:13.434Z,9.90
2023-03-26T11:45:18.430Z,9.90
2023-03-26T11:46:13.336Z,10.00
2023-03-26T11:47:13.258Z,10.10
2023-03-26T11:48:13.421Z,10.00
2023-03-26T11:49:13.452Z,10.20
2023-03-26T11:50:18.382Z,10.10
2023-03-26T11:51:13.396Z,10.30
2023-03-26T11:52:13.358Z,10.30
2023-03-26T11:53:13.278Z,10.20
2023-03-26T11:54:13.488Z,10.00
2023-03-26T11:55:13.535Z,9.50
2023-03-26T11:56:13.497Z,9.80
2023-03-26T11:57:13.696Z,9.90
2023-03-26T11:58:13.676Z,9.70
2023-03-26T11:59:13.977Z,9.90
2023-03-26T12:00:12.909Z,10.00
2023-03-26T12:01:13.121Z,10.10
2023-03-26T12:02:13.186Z,10.10
2023-03-26T12:03:13.555Z,10.10
2023-03-26T12:04:13.952Z,9.90
2023-03-26T12:05:13.395Z,10.10
2023-03-26T12:06:13.376Z,9.40
2023-03-26T12:07:13.266Z,10.00
2023-03-26T12:08:13.107Z,10.20
2023-03-26T12:09:13.149Z,9.70
2023-03-26T12:10:15.526Z,10.00
2023-03-26T12:11:13.144Z,10.20
2023-03-26T12:12:13.145Z,10.30
2023-03-26T12:13:13.153Z,10.40
2023-03-26T12:14:13.233Z,10.60
2023-03-26T12:15:13.251Z,10.40
2023-03-26T12:16:13.225Z,10.10
2023-03-26T12:17:13.339Z,10.10
2023-03-26T12:18:13.347Z,10.20
2023-03-26T12:19:13.281Z,10.30
2023-03-26T12:20:13.320Z,10.50
2023-03-26T12:21:13.300Z,10.70
2023-03-26T12:22:13.266Z,10.00
2023-03-26T12:23:13.282Z,10.10
2023-03-26T12:24:13.252Z,10.30
2023-03-26T12:25:13.363Z,10.40
2023-03-26T12:26:13.337Z,10.70
2023-03-26T12:27:13.540Z,10.40
2023-03-26T12:28:13.578Z,10.30
2023-03-26T12:29:13.672Z,10.80
2023-03-26T12:30:13.499Z,10.80
2023-03-26T12:31:13.671Z,10.70
2023-03-26T12:32:13.865Z,10.30
2023-03-26T12:33:14.225Z,10.30
2023-03-26T12:34:13.161Z,10.60
2023-03-26T12:35:13.071Z,10.70
2023-03-26T12:36:13.113Z,10.60
2023-03-26T12:37:13.003Z,10.50
2023-03-26T12:38:13.027Z,10.90
2023-03-26T12:39:42.669Z,10.70
2023-03-26T12:40:15.157Z,10.50
2023-03-26T12:43:51.643Z,10.20
2023-03-26T12:44:43.490Z,10.00
2023-03-26T12:44:45.047Z,10.40
2023-03-26T12:44:55.432Z,10.60
2023-03-26T12:45:13.698Z,10.80
2023-03-26T12:47:57.023Z,10.40
2023-03-26T12:47:59.034Z,10.50
2023-03-26T12:48:13.600Z,10.20
2023-03-26T12:49:13.943Z,10.70
2023-03-26T12:50:12.910Z,10.80
2023-03-26T12:51:12.877Z,10.50
2023-03-26T12:52:13.846Z,10.60
2023-03-26T12:53:13.710Z,10.80
2023-03-26T12:54:13.749Z,10.90
2023-03-26T12:55:13.950Z,10.80
2023-03-26T12:56:12.781Z,10.60
2023-03-26T12:57:13.703Z,10.40
2023-03-26T12:58:14.233Z,10.10
2023-03-26T12:59:13.143Z,10.10
2023-03-26T13:00:13.143Z,10.20
2023-03-26T13:01:13.123Z,9.90
2023-03-26T13:02:13.087Z,10.30
2023-03-26T13:03:13.258Z,10.20